Time;durP1;ratioP1;P1;durP2;ratioP2;P2;SDS_P1;SDS_P2;PMS_P1;PMS_P2;Temp;Humidity;BMP_temperature;BMP_pressure;BME280_temperature;BME280_humidity;BME280_pressure;Samples;Min_cycle;Max_cycle;Signal;HPM_P1;HPM_P2
2022/12/05 00:02:05;;;;;;;21.40;15.43;;;;;;;;;;5024631;28;20203;-73
2022/12/05 00:04:30;;;;;;;24.43;16.07;;;;;;;;;;5023757;28;20182;-72
2022/12/05 00:06:56;;;;;;;25.03;15.30;;;;;;;;;;4995471;28;20606;-73
2022/12/05 00:09:21;;;;;;;19.90;14.93;;;;;;;;;;5016402;28;20207;-72
2022/12/05 00:11:47;;;;;;;19.83;14.90;;;;;;;;;;4996286;28;20189;-72
2022/12/05 00:14:12;;;;;;;19.93;13.80;;;;;;;;;;5010119;28;20183;-72
2022/12/05 00:16:38;;;;;;;16.80;13.17;;;;;;;;;;4996175;28;20185;-72
2022/12/05 00:19:05;;;;;;;15.17;12.27;;;;;;;;;;5018122;28;20216;-72
2022/12/05 00:21:31;;;;;;;14.03;11.90;;;;;;;;;;5003210;28;20474;-72
2022/12/05 00:23:57;;;;;;;14.33;10.10;;;;;;;;;;5019687;28;20466;-72
2022/12/05 00:26:22;;;;;;;13.47;10.97;;;;;;;;;;5006015;28;20443;-72
2022/12/05 00:28:48;;;;;;;13.00;10.60;;;;;;;;;;5000022;28;20447;-73
2022/12/05 00:31:17;;;;;;;15.10;10.70;;;;;;;;;;5023716;28;20711;-72
2022/12/05 00:33:43;;;;;;;12.97;10.37;;;;;;;;;;5024463;28;20193;-72
2022/12/05 00:36:10;;;;;;;13.10;9.77;;;;;;;;;;5028602;28;20453;-72
2022/12/05 00:38:36;;;;;;;12.20;10.20;;;;;;;;;;5023724;28;20474;-72
2022/12/05 00:41:05;;;;;;;14.83;11.10;;;;;;;;;;5011683;28;20850;-73
2022/12/05 00:43:31;;;;;;;12.97;10.13;;;;;;;;;;5026648;28;20192;-73
2022/12/05 00:45:59;;;;;;;12.10;10.77;;;;;;;;;;5021232;28;20488;-72
2022/12/05 00:48:28;;;;;;;13.00;9.70;;;;;;;;;;5015300;28;25977;-72
2022/12/05 00:51:04;;;;;;;12.17;9.70;;;;;;;;;;5009174;28;20458;-72
2022/12/05 00:53:29;;;;;;;11.13;8.60;;;;;;;;;;5009452;28;20439;-73
2022/12/05 00:55:54;;;;;;;13.27;9.27;;;;;;;;;;5023762;28;20436;-73
2022/12/05 00:58:20;;;;;;;11.90;9.90;;;;;;;;;;5006885;28;20285;-72
2022/12/05 01:00:45;;;;;;;10.80;9.13;;;;;;;;;;5023784;28;20212;-72
2022/12/05 01:03:10;;;;;;;9.60;8.60;;;;;;;;;;5019964;28;20271;-72
2022/12/05 01:05:35;;;;;;;11.43;8.70;;;;;;;;;;5019500;28;20188;-72
2022/12/05 01:08:01;;;;;;;10.83;9.00;;;;;;;;;;5018529;28;20295;-73
2022/12/05 01:10:26;;;;;;;9.60;7.97;;;;;;;;;;5022527;28;20204;-72
2022/12/05 01:12:52;;;;;;;10.53;8.83;;;;;;;;;;5006526;28;20231;-72
2022/12/05 01:15:17;;;;;;;10.10;8.13;;;;;;;;;;5007904;28;20180;-72
2022/12/05 01:17:43;;;;;;;8.03;6.90;;;;;;;;;;5006303;28;20207;-72
2022/12/05 01:20:08;;;;;;;11.70;8.50;;;;;;;;;;5007561;28;20208;-72
2022/12/05 01:22:36;;;;;;;9.23;7.27;;;;;;;;;;5006335;28;20276;-72
2022/12/05 01:25:01;;;;;;;10.00;7.80;;;;;;;;;;5027671;28;21219;-73
2022/12/05 01:27:27;;;;;;;8.30;7.40;;;;;;;;;;5017677;28;20435;-72
2022/12/05 01:29:52;;;;;;;9.07;7.60;;;;;;;;;;5020974;28;20278;-72
2022/12/05 01:32:18;;;;;;;9.63;6.90;;;;;;;;;;5021488;28;20220;-72
2022/12/05 01:34:43;;;;;;;8.57;7.00;;;;;;;;;;5004065;28;20188;-72
2022/12/05 01:37:08;;;;;;;8.87;7.30;;;;;;;;;;5010966;28;20212;-73
2022/12/05 01:39:33;;;;;;;8.30;6.73;;;;;;;;;;5015829;28;20577;-72
2022/12/05 01:41:59;;;;;;;7.90;7.10;;;;;;;;;;5033744;28;20211;-72
2022/12/05 01:44:24;;;;;;;8.07;7.10;;;;;;;;;;5012451;28;20196;-72
2022/12/05 01:46:50;;;;;;;8.17;7.23;;;;;;;;;;5032994;28;20262;-72
2022/12/05 01:49:16;;;;;;;7.47;6.50;;;;;;;;;;4998697;28;20868;-73
2022/12/05 01:51:46;;;;;;;8.00;6.40;;;;;;;;;;5023121;28;20439;-72
2022/12/05 01:54:12;;;;;;;8.90;6.80;;;;;;;;;;5025338;28;20780;-72
2022/12/05 01:56:39;;;;;;;8.80;6.33;;;;;;;;;;5008003;28;20957;-72
2022/12/05 01:59:06;;;;;;;6.27;5.27;;;;;;;;;;5010692;28;20506;-72
2022/12/05 02:01:32;;;;;;;9.03;6.73;;;;;;;;;;5017562;28;20449;-72
2022/12/05 02:03:57;;;;;;;8.07;6.17;;;;;;;;;;4999291;28;20450;-72
2022/12/05 02:06:24;;;;;;;8.37;6.00;;;;;;;;;;5003887;28;21971;-73
2022/12/05 02:08:50;;;;;;;6.63;5.73;;;;;;;;;;5014423;28;20227;-72
2022/12/05 02:11:16;;;;;;;8.53;5.63;;;;;;;;;;5005884;28;20553;-72
2022/12/05 02:13:41;;;;;;;6.30;5.50;;;;;;;;;;5014843;28;20446;-72
2022/12/05 02:16:25;;;;;;;9.33;6.40;;;;;;;;;;4994143;28;20208;-72
2022/12/05 02:18:53;;;;;;;6.23;5.63;;;;;;;;;;5013705;28;20668;-73
2022/12/05 02:21:21;;;;;;;7.03;5.30;;;;;;;;;;5013849;28;20455;-72
2022/12/05 02:23:49;;;;;;;6.97;5.50;;;;;;;;;;5017804;28;20456;-72
2022/12/05 02:26:20;;;;;;;7.33;6.03;;;;;;;;;;5020889;28;20435;-72
2022/12/05 02:28:56;;;;;;;8.50;6.03;;;;;;;;;;5024064;28;20435;-73
2022/12/05 02:31:26;;;;;;;7.40;5.67;;;;;;;;;;5010942;28;20524;-72
2022/12/05 02:34:03;;;;;;;7.80;6.47;;;;;;;;;;5005553;28;20447;-72
2022/12/05 02:36:38;;;;;;;6.33;5.60;;;;;;;;;;5017843;28;20439;-72
2022/12/05 02:39:07;;;;;;;7.20;4.87;;;;;;;;;;5021549;28;20994;-72
2022/12/05 02:41:32;;;;;;;6.90;5.27;;;;;;;;;;5014091;28;20434;-73
2022/12/05 02:44:02;;;;;;;7.37;5.70;;;;;;;;;;5000035;28;21230;-72
2022/12/05 02:46:28;;;;;;;6.93;5.50;;;;;;;;;;5018850;28;20223;-73
2022/12/05 02:48:55;;;;;;;11.93;5.70;;;;;;;;;;5005129;28;20436;-73
2022/12/05 02:51:22;;;;;;;5.53;4.93;;;;;;;;;;5007274;28;20860;-72
2022/12/05 02:53:49;;;;;;;6.57;5.23;;;;;;;;;;5013156;28;20989;-72
2022/12/05 02:56:14;;;;;;;5.80;5.20;;;;;;;;;;5021759;28;20526;-72
2022/12/05 02:58:43;;;;;;;6.43;5.70;;;;;;;;;;5003839;28;20566;-72
2022/12/05 03:01:08;;;;;;;7.07;5.47;;;;;;;;;;5014187;28;20227;-73
2022/12/05 03:03:34;;;;;;;6.70;5.40;;;;;;;;;;5016044;28;20807;-72
2022/12/05 03:06:13;;;;;;;8.87;5.93;;;;;;;;;;5019893;28;20810;-72
2022/12/05 03:08:46;;;;;;;7.57;5.80;;;;;;;;;;5003637;28;20199;-72
2022/12/05 03:11:12;;;;;;;6.07;5.47;;;;;;;;;;5012279;28;20961;-72
2022/12/05 03:13:46;;;;;;;7.30;5.53;;;;;;;;;;5014828;28;20439;-73
2022/12/05 03:16:17;;;;;;;8.73;5.70;;;;;;;;;;5023093;28;20265;-73
2022/12/05 03:19:09;;;;;;;7.03;5.17;;;;;;;;;;5008094;28;20540;-72
2022/12/05 03:21:53;;;;;;;6.53;5.50;;;;;;;;;;5020001;28;20434;-73
2022/12/05 03:24:18;;;;;;;6.30;5.23;;;;;;;;;;5023384;28;20426;-72
2022/12/05 03:26:43;;;;;;;5.43;4.90;;;;;;;;;;5002289;28;20461;-72
2022/12/05 03:29:21;;;;;;;6.53;5.23;;;;;;;;;;5005688;28;20223;-72
2022/12/05 03:31:56;;;;;;;6.87;6.10;;;;;;;;;;5011101;28;20196;-72
2022/12/05 03:34:48;;;;;;;5.73;5.13;;;;;;;;;;5019496;28;20457;-72
2022/12/05 03:37:23;;;;;;;6.13;5.13;;;;;;;;;;5012098;28;20565;-73
2022/12/05 03:39:53;;;;;;;4.63;4.10;;;;;;;;;;5009245;28;20511;-72
2022/12/05 03:42:25;;;;;;;7.47;5.03;;;;;;;;;;5013430;28;20424;-73
2022/12/05 03:44:54;;;;;;;5.50;4.77;;;;;;;;;;5024466;28;20531;-72
2022/12/05 03:47:36;;;;;;;6.53;5.23;;;;;;;;;;5021649;28;20546;-73
2022/12/05 03:50:09;;;;;;;7.50;5.33;;;;;;;;;;5020478;28;20479;-72
2022/12/05 03:52:46;;;;;;;7.37;5.50;;;;;;;;;;5026553;28;20430;-72
2022/12/05 03:55:12;;;;;;;8.13;5.67;;;;;;;;;;5026733;28;20431;-73
2022/12/05 03:57:44;;;;;;;5.73;4.93;;;;;;;;;;5028824;28;20513;-73
2022/12/05 04:00:17;;;;;;;10.03;5.70;;;;;;;;;;5014499;28;20454;-73
2022/12/05 04:02:52;;;;;;;7.40;5.87;;;;;;;;;;5041876;28;20948;-72
2022/12/05 04:05:29;;;;;;;7.33;5.43;;;;;;;;;;5040516;28;20410;-73
2022/12/05 04:07:57;;;;;;;8.57;5.27;;;;;;;;;;5023152;28;21037;-73
2022/12/05 04:10:25;;;;;;;9.93;5.40;;;;;;;;;;5038617;28;20431;-73
2022/12/05 04:12:52;;;;;;;5.37;4.60;;;;;;;;;;5029672;28;20473;-73
2022/12/05 04:15:21;;;;;;;7.20;5.03;;;;;;;;;;5007699;28;21586;-73
2022/12/05 04:18:00;;;;;;;5.90;4.90;;;;;;;;;;5029134;28;20557;-73
2022/12/05 04:23:09;;;;;;;6.17;4.97;;;;;;;;;;5037109;28;20476;-74
2022/12/05 04:25:49;;;;;;;4.90;4.40;;;;;;;;;;5012375;28;20429;-74
2022/12/05 04:28:37;;;;;;;6.43;5.00;;;;;;;;;;5018343;28;20188;-75
2022/12/05 04:31:05;;;;;;;5.80;4.63;;;;;;;;;;5002424;28;20984;-74
2022/12/05 04:33:43;;;;;;;5.70;5.00;;;;;;;;;;5016648;28;20446;-75
2022/12/05 04:36:28;;;;;;;6.00;4.80;;;;;;;;;;5021260;28;20448;-74
2022/12/05 04:39:02;;;;;;;7.23;4.90;;;;;;;;;;5017302;28;21160;-74
2022/12/05 04:41:31;;;;;;;7.50;5.30;;;;;;;;;;5018824;28;20455;-74
2022/12/05 04:43:58;;;;;;;5.23;4.70;;;;;;;;;;5019051;28;20436;-74
2022/12/05 04:46:23;;;;;;;4.97;4.10;;;;;;;;;;5019183;28;20526;-74
2022/12/05 04:48:51;;;;;;;5.67;5.10;;;;;;;;;;5004948;28;20568;-74
2022/12/05 04:51:20;;;;;;;8.27;4.43;;;;;;;;;;5022513;28;20207;-74
2022/12/05 04:53:45;;;;;;;5.60;4.70;;;;;;;;;;5006194;28;20811;-74
2022/12/05 04:56:13;;;;;;;5.97;4.83;;;;;;;;;;5015551;28;20435;-74
2022/12/05 04:58:38;;;;;;;5.70;5.10;;;;;;;;;;5012441;28;20671;-74
2022/12/05 05:01:07;;;;;;;5.93;5.10;;;;;;;;;;5008087;28;20451;-74
2022/12/05 05:03:35;;;;;;;7.63;4.87;;;;;;;;;;5017779;28;20202;-74
2022/12/05 05:06:01;;;;;;;4.97;4.23;;;;;;;;;;5013327;28;20432;-74
2022/12/05 05:08:30;;;;;;;8.27;4.93;;;;;;;;;;4995310;28;20459;-74
2022/12/05 05:10:55;;;;;;;6.57;4.37;;;;;;;;;;5011904;28;20208;-74
2022/12/05 05:13:20;;;;;;;5.47;4.50;;;;;;;;;;5016039;28;20485;-74
2022/12/05 05:15:46;;;;;;;7.07;4.97;;;;;;;;;;5014919;28;20257;-74
2022/12/05 05:18:11;;;;;;;5.27;4.40;;;;;;;;;;5018016;28;20208;-74
2022/12/05 05:20:37;;;;;;;7.93;5.40;;;;;;;;;;5016750;28;20208;-74
2022/12/05 05:23:02;;;;;;;6.37;4.40;;;;;;;;;;5018550;28;20187;-74
2022/12/05 05:25:27;;;;;;;4.93;4.00;;;;;;;;;;5013665;28;20199;-74
2022/12/05 05:27:54;;;;;;;6.13;4.50;;;;;;;;;;5009495;28;20267;-75
2022/12/05 05:30:20;;;;;;;7.17;4.70;;;;;;;;;;5010660;28;20204;-74
2022/12/05 05:32:45;;;;;;;9.03;4.83;;;;;;;;;;5013927;28;20444;-75
2022/12/05 05:35:12;;;;;;;4.93;4.23;;;;;;;;;;5022415;28;20539;-75
2022/12/05 05:37:37;;;;;;;5.70;4.10;;;;;;;;;;5016942;28;20201;-75
2022/12/05 05:40:03;;;;;;;8.17;4.50;;;;;;;;;;5023786;28;20454;-74
2022/12/05 05:42:28;;;;;;;6.63;4.20;;;;;;;;;;5004584;28;20184;-76
2022/12/05 05:44:54;;;;;;;7.73;4.53;;;;;;;;;;5021928;28;20439;-75
2022/12/05 05:47:19;;;;;;;6.93;4.60;;;;;;;;;;5020949;28;20172;-75
2022/12/05 05:49:44;;;;;;;9.10;4.60;;;;;;;;;;5003791;28;20977;-75
2022/12/05 05:52:10;;;;;;;6.73;4.27;;;;;;;;;;5018809;28;20180;-74
2022/12/05 05:54:35;;;;;;;5.23;4.10;;;;;;;;;;5017320;28;20176;-75
2022/12/05 05:57:00;;;;;;;8.13;4.23;;;;;;;;;;5020213;28;20176;-74
2022/12/05 05:59:26;;;;;;;8.37;4.27;;;;;;;;;;5016985;28;20204;-74
2022/12/05 06:01:51;;;;;;;6.50;4.33;;;;;;;;;;5018141;28;26438;-74
2022/12/05 06:04:16;;;;;;;8.70;4.83;;;;;;;;;;5013348;28;20172;-74
2022/12/05 06:06:41;;;;;;;7.73;5.40;;;;;;;;;;4999150;28;20188;-74
2022/12/05 06:09:07;;;;;;;9.03;5.70;;;;;;;;;;5018501;28;20180;-74
2022/12/05 06:11:32;;;;;;;8.50;5.03;;;;;;;;;;5015956;28;20503;-74
2022/12/05 06:14:01;;;;;;;7.93;5.20;;;;;;;;;;4997857;28;20220;-76
2022/12/05 06:16:26;;;;;;;11.20;5.80;;;;;;;;;;5016856;28;20181;-74
2022/12/05 06:18:52;;;;;;;11.37;6.07;;;;;;;;;;5014842;28;20546;-74
2022/12/05 06:21:17;;;;;;;9.70;5.63;;;;;;;;;;5015090;28;20211;-74
2022/12/05 06:23:43;;;;;;;8.60;6.30;;;;;;;;;;5013363;28;20643;-75
2022/12/05 06:26:10;;;;;;;8.07;6.20;;;;;;;;;;5014959;28;20185;-74
2022/12/05 06:28:36;;;;;;;9.63;6.10;;;;;;;;;;5015496;28;20738;-74
2022/12/05 06:31:05;;;;;;;8.70;6.23;;;;;;;;;;5015396;28;20446;-74
2022/12/05 06:33:31;;;;;;;9.93;5.87;;;;;;;;;;5016441;28;20461;-74
2022/12/05 06:36:03;;;;;;;8.70;6.07;;;;;;;;;;5004491;28;20854;-75
2022/12/05 06:38:29;;;;;;;11.47;6.30;;;;;;;;;;5019558;28;20200;-74
2022/12/05 06:40:54;;;;;;;12.40;6.33;;;;;;;;;;5021431;28;20454;-74
2022/12/05 06:43:19;;;;;;;9.37;6.00;;;;;;;;;;5022094;28;20177;-74
2022/12/05 06:45:45;;;;;;;10.17;6.20;;;;;;;;;;5022090;28;20181;-75
2022/12/05 06:48:10;;;;;;;10.77;6.33;;;;;;;;;;5020602;28;20259;-74
2022/12/05 06:50:35;;;;;;;8.30;6.47;;;;;;;;;;5020362;28;20717;-75
2022/12/05 06:53:01;;;;;;;9.03;6.37;;;;;;;;;;5021106;28;20176;-75
2022/12/05 06:55:26;;;;;;;8.53;6.47;;;;;;;;;;5022608;28;20177;-75
2022/12/05 06:57:51;;;;;;;8.20;5.70;;;;;;;;;;5019494;28;20203;-74
2022/12/05 07:03:00;;;;;;;7.97;6.83;;;;;;;;;;5018576;28;20547;-74
2022/12/05 07:05:26;;;;;;;14.90;8.60;;;;;;;;;;5000343;28;20423;-75
2022/12/05 07:07:51;;;;;;;8.90;5.70;;;;;;;;;;5018076;28;20218;-74
2022/12/05 07:10:17;;;;;;;6.87;5.63;;;;;;;;;;5019499;28;20200;-74
2022/12/05 07:12:42;;;;;;;6.77;5.50;;;;;;;;;;5021177;28;20613;-74
2022/12/05 07:15:07;;;;;;;9.27;6.37;;;;;;;;;;5019190;28;20177;-74
2022/12/05 07:17:37;;;;;;;8.53;5.50;;;;;;;;;;5014061;28;20216;-74
2022/12/05 07:20:02;;;;;;;9.70;5.97;;;;;;;;;;5013576;28;20291;-74
2022/12/05 07:22:28;;;;;;;9.17;6.00;;;;;;;;;;5018558;28;20518;-74
2022/12/05 07:24:53;;;;;;;7.83;5.83;;;;;;;;;;5024128;28;20182;-74
2022/12/05 07:27:19;;;;;;;9.90;6.10;;;;;;;;;;5007560;28;20738;-75
2022/12/05 07:29:44;;;;;;;8.23;5.77;;;;;;;;;;5023625;28;20197;-75
2022/12/05 07:32:09;;;;;;;7.93;5.33;;;;;;;;;;5025048;28;20227;-75
2022/12/05 07:34:35;;;;;;;7.37;5.33;;;;;;;;;;5023745;28;20177;-75
2022/12/05 07:37:00;;;;;;;7.33;5.73;;;;;;;;;;5023119;28;20600;-75
2022/12/05 07:39:25;;;;;;;6.13;5.03;;;;;;;;;;5022549;28;20203;-75
2022/12/05 07:41:50;;;;;;;10.13;6.17;;;;;;;;;;5023885;28;20191;-74
2022/12/05 07:44:16;;;;;;;7.63;6.07;;;;;;;;;;5023908;28;20201;-75
2022/12/05 07:46:41;;;;;;;9.00;6.20;;;;;;;;;;5024737;28;20203;-75
2022/12/05 07:49:07;;;;;;;8.10;5.80;;;;;;;;;;5019070;28;20271;-74
2022/12/05 07:51:32;;;;;;;7.70;5.03;;;;;;;;;;5024038;28;20185;-75
2022/12/05 07:53:58;;;;;;;8.07;5.50;;;;;;;;;;5021715;28;20192;-74
2022/12/05 07:56:24;;;;;;;5.23;4.67;;;;;;;;;;5023798;28;20181;-74
2022/12/05 07:58:49;;;;;;;9.27;5.27;;;;;;;;;;5022747;28;20543;-74
2022/12/05 08:01:16;;;;;;;6.57;5.60;;;;;;;;;;5022978;28;20262;-75
2022/12/05 08:03:42;;;;;;;8.00;5.53;;;;;;;;;;5023833;28;20184;-75
2022/12/05 08:06:09;;;;;;;6.33;5.20;;;;;;;;;;5024598;28;20403;-74
2022/12/05 08:08:35;;;;;;;8.87;5.57;;;;;;;;;;5021326;28;20181;-74
2022/12/05 08:11:07;;;;;;;7.60;5.40;;;;;;;;;;5022358;28;20435;-74
2022/12/05 08:13:33;;;;;;;9.53;6.30;;;;;;;;;;5022252;28;20187;-74
2022/12/05 08:16:02;;;;;;;9.00;5.77;;;;;;;;;;5023309;28;20431;-74
2022/12/05 08:18:27;;;;;;;7.07;5.50;;;;;;;;;;5020042;28;20211;-75
2022/12/05 08:20:53;;;;;;;7.80;5.30;;;;;;;;;;5021736;28;20454;-74
2022/12/05 08:23:18;;;;;;;9.83;5.73;;;;;;;;;;5008349;28;20184;-74
2022/12/05 08:25:44;;;;;;;8.83;6.03;;;;;;;;;;5020320;28;20580;-74
2022/12/05 08:28:09;;;;;;;10.87;6.47;;;;;;;;;;5018098;28;20185;-74
2022/12/05 08:30:34;;;;;;;7.80;5.90;;;;;;;;;;5018733;28;20241;-76
2022/12/05 08:32:59;;;;;;;9.47;6.10;;;;;;;;;;5018203;28;20180;-74
2022/12/05 08:35:25;;;;;;;7.23;5.80;;;;;;;;;;5003547;28;20173;-74
2022/12/05 08:37:50;;;;;;;14.33;6.83;;;;;;;;;;5020345;28;20199;-74
2022/12/05 08:40:16;;;;;;;9.43;6.33;;;;;;;;;;5023168;28;20200;-74
2022/12/05 08:42:41;;;;;;;8.67;5.40;;;;;;;;;;5005509;28;20172;-74
2022/12/05 08:45:07;;;;;;;10.53;6.30;;;;;;;;;;5019863;28;20173;-74
2022/12/05 08:47:32;;;;;;;6.93;5.53;;;;;;;;;;5021871;28;20212;-74
2022/12/05 08:49:57;;;;;;;7.83;5.90;;;;;;;;;;5021032;28;20674;-74
2022/12/05 08:52:22;;;;;;;9.47;6.20;;;;;;;;;;5022544;28;20179;-74
2022/12/05 08:54:48;;;;;;;6.93;6.00;;;;;;;;;;5006036;28;20181;-74
2022/12/05 08:57:13;;;;;;;8.50;6.50;;;;;;;;;;5018402;28;20180;-74
2022/12/05 08:59:38;;;;;;;9.57;6.50;;;;;;;;;;5019613;28;20409;-73
2022/12/05 09:02:04;;;;;;;9.87;6.47;;;;;;;;;;5018683;28;20420;-73
2022/12/05 09:04:29;;;;;;;8.30;6.10;;;;;;;;;;5019648;28;20168;-73
2022/12/05 09:06:54;;;;;;;7.80;5.83;;;;;;;;;;5020887;28;20212;-72
2022/12/05 09:09:19;;;;;;;8.57;6.00;;;;;;;;;;5021252;28;20546;-73
2022/12/05 09:11:47;;;;;;;7.47;5.80;;;;;;;;;;5021274;28;20176;-73
2022/12/05 09:14:13;;;;;;;10.83;5.83;;;;;;;;;;5020870;28;20204;-74
2022/12/05 09:16:38;;;;;;;8.53;4.93;;;;;;;;;;5015501;28;20836;-73
2022/12/05 09:19:04;;;;;;;8.53;6.17;;;;;;;;;;5019714;28;20609;-73
2022/12/05 09:21:30;;;;;;;7.93;5.80;;;;;;;;;;5003576;28;20534;-73
2022/12/05 09:23:59;;;;;;;8.80;6.00;;;;;;;;;;5016232;28;20251;-73
2022/12/05 09:26:25;;;;;;;7.20;5.50;;;;;;;;;;5018952;28;21144;-73
2022/12/05 09:28:51;;;;;;;8.00;5.13;;;;;;;;;;5004442;28;20496;-74
2022/12/05 09:31:17;;;;;;;8.10;4.97;;;;;;;;;;5021221;28;20944;-73
2022/12/05 09:33:43;;;;;;;6.40;4.63;;;;;;;;;;5018950;28;20187;-74
2022/12/05 09:36:12;;;;;;;7.47;5.27;;;;;;;;;;5021170;28;20415;-73
2022/12/05 09:38:37;;;;;;;6.13;4.53;;;;;;;;;;5018291;28;20208;-74
2022/12/05 09:41:12;;;;;;;5.90;4.27;;;;;;;;;;5003846;28;20497;-74
2022/12/05 09:43:47;;;;;;;6.13;4.47;;;;;;;;;;5017245;28;20181;-73
2022/12/05 09:46:32;;;;;;;5.97;4.37;;;;;;;;;;5017191;28;21123;-73
2022/12/05 09:48:58;;;;;;;6.17;4.43;;;;;;;;;;4988267;28;20504;-73
2022/12/05 09:51:24;;;;;;;6.30;4.80;;;;;;;;;;5006107;28;20427;-74
2022/12/05 09:53:49;;;;;;;5.50;4.90;;;;;;;;;;5019597;28;20575;-74
2022/12/05 09:56:21;;;;;;;6.13;4.80;;;;;;;;;;5018353;28;20435;-74
2022/12/05 09:58:50;;;;;;;7.97;4.70;;;;;;;;;;5015175;28;22114;-73
2022/12/05 10:01:15;;;;;;;7.73;4.87;;;;;;;;;;5020488;28;20479;-74
2022/12/05 10:03:44;;;;;;;5.80;4.37;;;;;;;;;;5018588;28;20462;-74
2022/12/05 10:06:12;;;;;;;7.23;5.27;;;;;;;;;;5018540;28;20187;-73
2022/12/05 10:08:59;;;;;;;6.93;4.87;;;;;;;;;;5018872;28;20435;-74
2022/12/05 10:11:38;;;;;;;5.43;4.40;;;;;;;;;;5018493;28;20435;-73
2022/12/05 10:14:25;;;;;;;7.47;4.53;;;;;;;;;;4996524;28;20861;-73
2022/12/05 10:16:54;;;;;;;7.80;4.60;;;;;;;;;;5016288;28;20430;-74
2022/12/05 10:19:29;;;;;;;5.17;4.57;;;;;;;;;;5010694;28;20497;-74
2022/12/05 10:21:57;;;;;;;7.50;4.47;;;;;;;;;;5013394;28;20438;-74
2022/12/05 10:24:43;;;;;;;8.10;4.53;;;;;;;;;;5020811;28;20674;-74
2022/12/05 10:27:17;;;;;;;6.87;5.20;;;;;;;;;;5017374;28;20458;-73
2022/12/05 10:30:01;;;;;;;7.00;4.93;;;;;;;;;;5015488;28;20827;-74
2022/12/05 10:32:32;;;;;;;9.60;5.87;;;;;;;;;;5019830;28;20616;-74
2022/12/05 10:35:20;;;;;;;8.40;5.30;;;;;;;;;;5003560;28;20428;-74
2022/12/05 10:37:47;;;;;;;6.43;4.57;;;;;;;;;;5009824;28;20463;-74
2022/12/05 10:40:13;;;;;;;9.43;5.30;;;;;;;;;;5014372;28;20451;-73
2022/12/05 10:42:38;;;;;;;7.10;4.50;;;;;;;;;;5015591;28;21061;-73
2022/12/05 10:45:12;;;;;;;6.83;4.30;;;;;;;;;;5018969;28;20515;-74
2022/12/05 10:47:37;;;;;;;5.97;4.97;;;;;;;;;;5016926;28;20266;-74
2022/12/05 10:50:20;;;;;;;6.33;4.17;;;;;;;;;;5022212;28;20446;-74
2022/12/05 10:52:46;;;;;;;6.77;4.20;;;;;;;;;;5022305;28;20184;-73
2022/12/05 10:55:12;;;;;;;5.93;4.70;;;;;;;;;;5023093;28;20428;-73
2022/12/05 10:57:38;;;;;;;6.50;4.50;;;;;;;;;;5019714;28;21031;-73
2022/12/05 11:00:12;;;;;;;7.40;4.83;;;;;;;;;;5014542;28;20440;-73
2022/12/05 11:02:39;;;;;;;6.37;4.40;;;;;;;;;;5016813;28;20176;-73
2022/12/05 11:05:05;;;;;;;5.70;4.03;;;;;;;;;;5002700;28;20834;-74
2022/12/05 11:07:44;;;;;;;5.63;4.77;;;;;;;;;;4996517;28;20439;-73
2022/12/05 11:10:21;;;;;;;5.73;4.30;;;;;;;;;;5009334;28;20486;-73
2022/12/05 11:12:46;;;;;;;5.00;4.17;;;;;;;;;;5017244;28;20779;-73
2022/12/05 11:15:15;;;;;;;6.50;3.70;;;;;;;;;;5023538;28;20427;-73
2022/12/05 11:17:40;;;;;;;5.40;3.93;;;;;;;;;;5016447;28;20224;-73
2022/12/05 11:20:14;;;;;;;4.77;3.63;;;;;;;;;;5022894;28;20455;-74
2022/12/05 11:22:40;;;;;;;4.80;3.93;;;;;;;;;;5023937;28;20176;-73
2022/12/05 11:25:22;;;;;;;6.70;3.70;;;;;;;;;;5022352;28;20414;-75
2022/12/05 11:27:47;;;;;;;6.03;3.73;;;;;;;;;;5022396;28;20646;-73
2022/12/05 11:30:12;;;;;;;4.50;3.93;;;;;;;;;;5022070;28;20454;-73
2022/12/05 11:32:38;;;;;;;6.67;3.90;;;;;;;;;;5021437;28;20539;-75
2022/12/05 11:35:03;;;;;;;4.87;3.70;;;;;;;;;;5018580;28;20193;-73
2022/12/05 11:37:32;;;;;;;5.50;3.60;;;;;;;;;;5021504;28;20177;-73
2022/12/05 11:40:13;;;;;;;6.03;3.73;;;;;;;;;;5015941;28;20247;-73
2022/12/05 11:42:44;;;;;;;4.97;3.60;;;;;;;;;;5011154;28;20423;-73
2022/12/05 11:45:31;;;;;;;7.00;4.20;;;;;;;;;;5018541;28;20434;-73
2022/12/05 11:48:05;;;;;;;6.10;4.40;;;;;;;;;;5013897;28;20487;-73
2022/12/05 11:50:30;;;;;;;7.07;3.83;;;;;;;;;;5012515;28;20965;-72
2022/12/05 11:53:15;;;;;;;4.80;4.10;;;;;;;;;;5011207;28;20427;-73
2022/12/05 11:55:52;;;;;;;5.17;4.00;;;;;;;;;;5012028;28;20180;-73
2022/12/05 11:58:29;;;;;;;5.50;4.20;;;;;;;;;;4993904;28;20459;-73
2022/12/05 12:01:00;;;;;;;6.30;3.87;;;;;;;;;;5016316;28;20467;-73
2022/12/05 12:03:52;;;;;;;7.53;4.50;;;;;;;;;;5019941;28;20944;-73
2022/12/05 12:06:23;;;;;;;5.57;4.20;;;;;;;;;;5017620;28;20518;-73
2022/12/05 12:09:07;;;;;;;5.47;3.80;;;;;;;;;;5016219;28;20478;-73
2022/12/05 12:11:35;;;;;;;5.73;4.17;;;;;;;;;;5014138;28;20460;-75
2022/12/05 12:14:00;;;;;;;5.63;4.03;;;;;;;;;;5018766;28;21984;-73
2022/12/05 12:16:34;;;;;;;5.30;4.10;;;;;;;;;;5019706;28;20442;-73
2022/12/05 12:19:10;;;;;;;8.13;4.40;;;;;;;;;;5021336;28;20663;-73
2022/12/05 12:21:49;;;;;;;6.73;3.70;;;;;;;;;;5000345;28;20458;-73
2022/12/05 12:24:26;;;;;;;7.53;3.70;;;;;;;;;;5022466;28;20427;-73
2022/12/05 12:27:15;;;;;;;5.93;3.90;;;;;;;;;;5006827;28;20418;-73
2022/12/05 12:30:04;;;;;;;5.43;2.90;;;;;;;;;;5020945;28;20493;-73
2022/12/05 12:32:55;;;;;;;6.63;3.50;;;;;;;;;;5009810;28;20459;-73
2022/12/05 12:35:30;;;;;;;5.17;3.17;;;;;;;;;;5003727;28;20427;-73
2022/12/05 12:37:55;;;;;;;4.50;3.50;;;;;;;;;;5012622;28;20458;-73
2022/12/05 12:40:21;;;;;;;7.40;3.50;;;;;;;;;;5017905;28;20454;-73
2022/12/05 12:43:06;;;;;;;4.80;2.90;;;;;;;;;;5019042;28;20275;-73
2022/12/05 12:45:50;;;;;;;4.30;3.50;;;;;;;;;;5010248;28;20438;-73
2022/12/05 12:48:41;;;;;;;7.03;3.53;;;;;;;;;;5012752;28;20436;-73
2022/12/05 12:51:10;;;;;;;4.80;3.30;;;;;;;;;;4994880;28;20459;-73
2022/12/05 12:53:53;;;;;;;4.37;2.93;;;;;;;;;;5012512;28;20497;-74
2022/12/05 12:56:19;;;;;;;4.13;2.77;;;;;;;;;;5019409;28;20510;-74
2022/12/05 12:58:47;;;;;;;5.27;2.80;;;;;;;;;;5017504;28;20460;-73
2022/12/05 13:01:21;;;;;;;5.40;3.40;;;;;;;;;;5020116;28;20215;-73
2022/12/05 13:03:49;;;;;;;4.67;3.50;;;;;;;;;;5020533;28;20479;-73
2022/12/05 13:06:22;;;;;;;8.03;4.30;;;;;;;;;;5015803;28;20545;-73
2022/12/05 13:08:51;;;;;;;6.83;3.53;;;;;;;;;;5015439;28;20790;-73
2022/12/05 13:11:17;;;;;;;6.33;3.30;;;;;;;;;;5019455;28;20466;-73
2022/12/05 13:13:44;;;;;;;5.40;3.20;;;;;;;;;;5021428;28;20455;-73
2022/12/05 13:16:11;;;;;;;4.33;3.23;;;;;;;;;;5014355;28;20436;-73
2022/12/05 13:18:37;;;;;;;5.60;3.20;;;;;;;;;;5013778;28;20470;-74
2022/12/05 13:21:05;;;;;;;4.93;3.20;;;;;;;;;;5017118;28;20451;-74
2022/12/05 13:23:32;;;;;;;4.47;3.30;;;;;;;;;;5018668;28;20181;-74
2022/12/05 13:25:59;;;;;;;5.03;3.50;;;;;;;;;;5019143;28;20963;-74
2022/12/05 13:28:29;;;;;;;8.10;3.70;;;;;;;;;;5019177;28;20420;-74
2022/12/05 13:31:00;;;;;;;5.70;3.60;;;;;;;;;;5019698;28;20472;-74
2022/12/05 13:33:28;;;;;;;5.73;3.33;;;;;;;;;;5019983;28;20404;-74
2022/12/05 13:44:28;;;;;;;6.03;3.80;;;;;;;;;;5019364;28;20424;-74
2022/12/05 13:46:53;;;;;;;6.97;4.20;;;;;;;;;;5019866;28;20415;-74
2022/12/05 13:49:35;;;;;;;5.53;4.20;;;;;;;;;;5017604;28;20435;-74
2022/12/05 13:52:06;;;;;;;5.40;4.23;;;;;;;;;;5016705;28;20256;-74
2022/12/05 13:54:32;;;;;;;5.63;3.80;;;;;;;;;;5019310;28;20481;-74
2022/12/05 13:57:00;;;;;;;5.47;4.30;;;;;;;;;;5019916;28;20497;-73
2022/12/05 13:59:44;;;;;;;7.30;4.60;;;;;;;;;;5017973;28;21159;-73
2022/12/05 14:02:28;;;;;;;6.10;4.03;;;;;;;;;;5017321;28;20439;-73
2022/12/05 14:04:53;;;;;;;6.47;4.50;;;;;;;;;;5018679;28;20408;-74
2022/12/05 14:07:39;;;;;;;6.20;3.93;;;;;;;;;;5017777;28;20414;-74
2022/12/05 14:10:04;;;;;;;5.40;3.60;;;;;;;;;;5017526;28;20198;-75
2022/12/05 14:12:42;;;;;;;4.60;3.70;;;;;;;;;;5019275;28;20782;-74
2022/12/05 14:15:26;;;;;;;7.73;4.17;;;;;;;;;;5018145;28;20177;-74
2022/12/05 14:17:57;;;;;;;6.40;4.40;;;;;;;;;;5017975;28;20455;-74
2022/12/05 14:20:41;;;;;;;5.83;3.83;;;;;;;;;;5015963;28;20466;-74
2022/12/05 14:23:19;;;;;;;5.33;3.83;;;;;;;;;;5019008;28;20412;-74
2022/12/05 14:25:53;;;;;;;7.30;3.70;;;;;;;;;;5018566;28;20948;-74
2022/12/05 14:28:37;;;;;;;5.00;3.70;;;;;;;;;;5018716;28;20557;-74
2022/12/05 14:31:17;;;;;;;4.30;3.40;;;;;;;;;;5018773;28;20485;-74
2022/12/05 14:33:43;;;;;;;6.63;3.70;;;;;;;;;;5022627;28;20481;-74
2022/12/05 14:36:14;;;;;;;4.60;3.70;;;;;;;;;;5018332;28;21175;-74
2022/12/05 14:38:40;;;;;;;5.77;3.77;;;;;;;;;;5020501;28;20520;-74
2022/12/05 14:41:12;;;;;;;5.70;3.23;;;;;;;;;;5020305;28;20456;-74
2022/12/05 14:43:37;;;;;;;10.37;4.00;;;;;;;;;;5018420;28;20431;-74
2022/12/05 14:46:05;;;;;;;4.20;3.30;;;;;;;;;;5022090;28;20402;-74
2022/12/05 14:48:32;;;;;;;4.27;3.60;;;;;;;;;;5004401;28;20242;-74
2022/12/05 14:50:58;;;;;;;4.20;3.63;;;;;;;;;;5017625;28;20459;-74
2022/12/05 14:53:29;;;;;;;4.77;3.63;;;;;;;;;;5020808;28;20427;-74
2022/12/05 14:56:15;;;;;;;5.50;3.80;;;;;;;;;;5020117;28;20187;-74
2022/12/05 14:58:47;;;;;;;4.60;3.73;;;;;;;;;;5015024;28;20459;-74
2022/12/05 15:01:15;;;;;;;4.60;3.63;;;;;;;;;;5003202;28;20481;-74
2022/12/05 15:03:46;;;;;;;4.60;3.67;;;;;;;;;;5019911;28;20502;-74
2022/12/05 15:06:14;;;;;;;5.57;3.63;;;;;;;;;;5021313;28;20941;-74
2022/12/05 15:08:45;;;;;;;5.40;3.90;;;;;;;;;;5018497;28;20432;-74